Time;durP1;ratioP1;P1;durP2;ratioP2;P2;SDS_P1;SDS_P2;PMS_P1;PMS_P2;Temp;Humidity;BMP_temperature;BMP_pressure;BME280_temperature;BME280_humidity;BME280_pressure;Samples;Min_cycle;Max_cycle;Signal;HPM_P1;HPM_P2
2023/08/06 00:00:04;;;;;;;9.90;5.57;;;;;;;14.02;nan;100339.50;5023127;28;20037;-77
2023/08/06 00:02:30;;;;;;;7.72;5.03;;;;;;;14.04;nan;100337.69;5016600;28;20021;-77
2023/08/06 00:04:55;;;;;;;7.28;5.28;;;;;;;14.07;nan;100335.84;5022993;28;20032;-77
2023/08/06 00:07:20;;;;;;;8.30;5.38;;;;;;;14.03;nan;100341.25;5023181;28;20526;-77
2023/08/06 00:09:45;;;;;;;7.40;4.95;;;;;;;14.07;nan;100333.25;5024197;28;20036;-77
2023/08/06 00:12:11;;;;;;;8.35;4.85;;;;;;;14.05;nan;100334.13;5022438;28;20037;-77
2023/08/06 00:14:36;;;;;;;6.75;4.40;;;;;;;14.05;nan;100344.63;5025792;28;20112;-77
2023/08/06 00:17:01;;;;;;;8.27;4.70;;;;;;;14.05;nan;100342.00;5023285;28;20520;-77
2023/08/06 00:19:27;;;;;;;6.55;4.45;;;;;;;14.05;nan;100333.28;5020785;28;20025;-77
2023/08/06 00:21:52;;;;;;;6.60;4.45;;;;;;;14.02;nan;100330.81;5025768;28;20463;-77
2023/08/06 00:24:17;;;;;;;11.90;4.93;;;;;;;14.01;nan;100318.63;5022186;28;20390;-77
2023/08/06 00:26:43;;;;;;;7.00;4.97;;;;;;;14.02;nan;100323.78;5026886;28;20385;-77
2023/08/06 00:29:08;;;;;;;5.88;4.50;;;;;;;14.00;nan;100315.16;5020620;28;20041;-76
2023/08/06 00:31:33;;;;;;;7.40;4.60;;;;;;;14.07;nan;100330.63;5028373;28;20041;-77
2023/08/06 00:33:58;;;;;;;6.03;4.30;;;;;;;14.03;nan;100325.50;5019692;28;20041;-77
2023/08/06 00:36:24;;;;;;;9.55;5.18;;;;;;;14.01;nan;100324.72;5013924;28;20169;-76
2023/08/06 00:38:49;;;;;;;7.45;4.15;;;;;;;14.01;nan;100323.88;5025352;28;20030;-77
2023/08/06 00:41:14;;;;;;;6.47;4.45;;;;;;;14.02;nan;100322.94;5019559;28;20026;-77
2023/08/06 00:43:40;;;;;;;7.68;4.53;;;;;;;13.96;nan;100320.59;5026134;28;20032;-77
2023/08/06 00:46:05;;;;;;;6.22;4.32;;;;;;;13.98;nan;100329.25;5020541;28;20485;-77
2023/08/06 00:48:31;;;;;;;7.35;4.57;;;;;;;13.99;nan;100331.78;5025097;28;20028;-77
2023/08/06 00:50:56;;;;;;;8.75;4.85;;;;;;;13.97;nan;100323.16;5019612;28;20025;-77
2023/08/06 00:53:22;;;;;;;7.15;4.28;;;;;;;13.96;nan;100317.97;5018509;28;20029;-77
2023/08/06 00:55:48;;;;;;;7.63;4.47;;;;;;;13.99;nan;100320.47;5021522;28;20436;-77
2023/08/06 00:58:15;;;;;;;6.68;4.30;;;;;;;13.97;nan;100315.31;5022659;28;20025;-78
2023/08/06 01:00:40;;;;;;;6.43;4.32;;;;;;;14.01;nan;100316.00;5023058;28;20461;-77
2023/08/06 01:03:05;;;;;;;8.55;4.43;;;;;;;14.00;nan;100317.78;5013924;28;20038;-77
2023/08/06 01:05:31;;;;;;;8.98;4.57;;;;;;;13.99;nan;100312.59;5025243;28;20022;-77
2023/08/06 01:08:28;;;;;;;6.65;4.63;;;;;;;13.99;nan;100315.22;5020230;28;20107;-78
2023/08/06 01:11:26;;;;;;;5.65;4.22;;;;;;;13.97;nan;100312.69;5027785;28;20025;-77
2023/08/06 01:14:02;;;;;;;8.77;4.63;;;;;;;13.99;nan;100316.06;5019837;28;20032;-77
2023/08/06 01:16:28;;;;;;;8.15;4.53;;;;;;;13.98;nan;100313.53;5011965;28;20088;-77
2023/08/06 01:18:53;;;;;;;5.10;3.83;;;;;;;13.95;nan;100309.28;5020440;28;20025;-77
2023/08/06 01:21:19;;;;;;;6.68;4.35;;;;;;;13.93;nan;100302.41;5028099;28;20428;-77
2023/08/06 01:23:46;;;;;;;5.60;4.15;;;;;;;13.88;nan;100313.09;5019237;28;20045;-77
2023/08/06 01:26:22;;;;;;;8.00;4.40;;;;;;;13.92;nan;100313.81;5017663;28;20029;-77
2023/08/06 01:29:18;;;;;;;6.28;4.10;;;;;;;13.89;nan;100322.66;5023864;28;20058;-77
2023/08/06 01:31:46;;;;;;;5.05;4.15;;;;;;;13.85;nan;100304.53;5007704;28;20039;-77
2023/08/06 01:34:18;;;;;;;7.13;4.13;;;;;;;13.84;nan;100310.69;5020667;28;20429;-77
2023/08/06 01:36:43;;;;;;;7.93;4.38;;;;;;;13.83;nan;100309.81;5008683;28;20587;-77
2023/08/06 01:39:09;;;;;;;6.50;4.25;;;;;;;13.81;nan;100309.06;5021978;28;20066;-77
2023/08/06 01:41:34;;;;;;;6.68;4.07;;;;;;;13.81;nan;100309.91;5011629;28;20137;-77
2023/08/06 01:44:00;;;;;;;7.35;4.20;;;;;;;13.79;nan;100310.88;5009625;28;20034;-77
2023/08/06 01:46:26;;;;;;;5.88;4.65;;;;;;;13.78;nan;100304.81;5018625;28;20907;-77
2023/08/06 01:48:51;;;;;;;8.43;4.25;;;;;;;13.78;nan;100312.66;5023880;28;20026;-77
2023/08/06 01:51:16;;;;;;;7.50;4.30;;;;;;;13.74;nan;100299.78;5015073;28;20034;-77
2023/08/06 01:53:42;;;;;;;8.02;4.18;;;;;;;13.75;nan;100306.72;5019819;28;20124;-77
2023/08/06 01:56:07;;;;;;;6.28;4.35;;;;;;;13.69;nan;100305.22;5023528;28;20037;-77
2023/08/06 01:58:32;;;;;;;5.00;3.92;;;;;;;13.70;nan;100304.31;5019114;28;20026;-77
2023/08/06 02:00:57;;;;;;;9.05;3.90;;;;;;;13.71;nan;100294.69;5027579;28;20525;-77
2023/08/06 02:03:23;;;;;;;5.97;4.25;;;;;;;13.68;nan;100306.16;5026119;28;20389;-77
2023/08/06 02:05:48;;;;;;;7.65;4.28;;;;;;;13.67;nan;100296.59;5024845;28;20034;-77
2023/08/06 02:08:13;;;;;;;8.57;4.18;;;;;;;13.69;nan;100301.75;5026290;28;20025;-77
2023/08/06 02:10:39;;;;;;;6.82;4.43;;;;;;;13.67;nan;100295.72;5027452;28;20022;-77
2023/08/06 02:13:04;;;;;;;6.13;4.00;;;;;;;13.72;nan;100299.84;5023771;28;20108;-77
2023/08/06 02:15:29;;;;;;;8.18;4.22;;;;;;;13.76;nan;100306.63;5028830;28;20026;-77
2023/08/06 02:17:55;;;;;;;10.18;4.65;;;;;;;13.78;nan;100306.59;5020566;28;20036;-77
2023/08/06 02:20:20;;;;;;;6.57;4.25;;;;;;;13.78;nan;100303.97;5030315;28;20025;-77
2023/08/06 02:22:46;;;;;;;9.35;4.20;;;;;;;13.84;nan;100310.69;5022985;28;20385;-77
2023/08/06 02:25:11;;;;;;;7.63;4.30;;;;;;;13.86;nan;100298.38;5015147;28;20045;-77
2023/08/06 02:27:37;;;;;;;5.80;3.90;;;;;;;13.84;nan;100294.97;5027364;28;20192;-77
2023/08/06 02:30:04;;;;;;;8.10;4.53;;;;;;;13.90;nan;100307.81;5022922;28;20524;-77
2023/08/06 02:32:31;;;;;;;7.60;4.10;;;;;;;13.89;nan;100309.56;5027892;28;20045;-77
2023/08/06 02:34:57;;;;;;;9.23;4.03;;;;;;;13.90;nan;100306.03;5015226;28;20465;-76
2023/08/06 02:37:22;;;;;;;7.93;4.20;;;;;;;13.92;nan;100309.41;5028480;28;20106;-77
2023/08/06 02:39:47;;;;;;;5.30;3.97;;;;;;;13.90;nan;100306.03;5022214;28;20030;-77
2023/08/06 02:42:12;;;;;;;6.40;4.13;;;;;;;13.92;nan;100301.56;5027101;28;20025;-77
2023/08/06 02:44:38;;;;;;;7.72;4.50;;;;;;;13.93;nan;100302.41;5024069;28;20038;-77
2023/08/06 02:47:03;;;;;;;5.82;3.58;;;;;;;13.89;nan;100306.09;5023872;28;20377;-77
2023/08/06 02:49:29;;;;;;;7.43;3.80;;;;;;;13.89;nan;100306.09;5016184;28;20092;-76
2023/08/06 02:51:54;;;;;;;5.70;4.07;;;;;;;13.90;nan;100306.03;5019183;28;20033;-77
2023/08/06 02:54:19;;;;;;;7.32;3.80;;;;;;;13.84;nan;100285.34;5021775;28;20037;-77
2023/08/06 02:56:46;;;;;;;4.63;3.17;;;;;;;13.85;nan;100294.91;5020258;28;20473;-77
2023/08/06 02:59:12;;;;;;;8.40;3.50;;;;;;;13.82;nan;100293.25;5025660;28;20087;-77
2023/08/06 03:01:37;;;;;;;10.57;3.42;;;;;;;13.83;nan;100299.34;5025157;28;20053;-77
2023/08/06 03:04:03;;;;;;;6.25;3.50;;;;;;;13.81;nan;100294.19;5019172;28;20113;-76
2023/08/06 03:06:28;;;;;;;6.28;3.55;;;;;;;13.87;nan;100297.47;5020010;28;20108;-77
2023/08/06 03:08:54;;;;;;;7.63;4.00;;;;;;;13.89;nan;100293.84;5020774;28;20462;-76
2023/08/06 03:11:19;;;;;;;6.63;4.10;;;;;;;13.90;nan;100287.69;5023496;28;20667;-77
2023/08/06 03:13:45;;;;;;;7.88;3.80;;;;;;;13.91;nan;100291.16;5023899;28;20026;-77
2023/08/06 03:16:10;;;;;;;5.75;3.58;;;;;;;13.91;nan;100297.25;5022893;28;20386;-77
2023/08/06 03:18:35;;;;;;;6.43;3.80;;;;;;;13.90;nan;100292.09;5031255;28;20457;-76
2023/08/06 03:21:01;;;;;;;13.02;4.05;;;;;;;13.92;nan;100303.31;5019250;28;20469;-77
2023/08/06 03:23:26;;;;;;;7.53;3.97;;;;;;;13.90;nan;100295.56;5029106;28;20112;-76
2023/08/06 03:25:52;;;;;;;5.88;3.70;;;;;;;13.90;nan;100306.03;5016279;28;20107;-77
2023/08/06 03:28:17;;;;;;;8.05;3.78;;;;;;;13.94;nan;100296.25;5025330;28;20037;-77
2023/08/06 03:30:43;;;;;;;8.15;4.10;;;;;;;13.90;nan;100302.56;5020854;28;20440;-77
2023/08/06 03:33:08;;;;;;;9.60;4.05;;;;;;;13.95;nan;100303.19;5020706;28;20503;-77
2023/08/06 03:35:33;;;;;;;9.10;4.22;;;;;;;13.96;nan;100304.88;5019128;28;20095;-77
2023/08/06 03:37:59;;;;;;;7.72;3.88;;;;;;;13.92;nan;100303.31;5021235;28;20060;-77
2023/08/06 03:40:24;;;;;;;7.55;4.40;;;;;;;13.91;nan;100307.72;5022675;28;20033;-76
2023/08/06 03:42:49;;;;;;;9.80;4.35;;;;;;;13.93;nan;100305.03;5014264;28;20029;-77
2023/08/06 03:45:14;;;;;;;8.18;4.35;;;;;;;13.90;nan;100302.56;5020192;28;20109;-76
2023/08/06 03:47:40;;;;;;;8.55;4.28;;;;;;;13.92;nan;100308.56;5020092;28;20402;-76
2023/08/06 03:50:06;;;;;;;7.70;4.40;;;;;;;13.89;nan;100299.06;5015761;28;20030;-76
2023/08/06 03:52:31;;;;;;;6.18;4.45;;;;;;;13.92;nan;100308.56;5024022;28;20033;-76
2023/08/06 03:54:57;;;;;;;7.43;4.68;;;;;;;13.91;nan;100309.50;5021375;28;20029;-76
2023/08/06 03:57:22;;;;;;;14.15;5.63;;;;;;;13.91;nan;100314.75;5025623;28;20040;-76
2023/08/06 03:59:47;;;;;;;8.40;4.57;;;;;;;13.91;nan;100312.13;5018647;28;20041;-77
2023/08/06 04:02:13;;;;;;;9.55;5.05;;;;;;;13.88;nan;100309.63;5021921;28;20042;-77
2023/08/06 04:04:38;;;;;;;9.73;5.20;;;;;;;13.88;nan;100307.84;5024065;28;20033;-77
2023/08/06 04:07:03;;;;;;;10.20;5.25;;;;;;;13.88;nan;100313.09;5023807;28;20496;-77
2023/08/06 04:09:29;;;;;;;8.75;5.32;;;;;;;13.88;nan;100313.09;5024143;28;20424;-76
2023/08/06 04:11:55;;;;;;;7.35;5.00;;;;;;;13.89;nan;100316.56;5023225;28;20461;-77
2023/08/06 04:14:21;;;;;;;11.98;5.22;;;;;;;13.89;nan;100320.03;5024018;28;20389;-76
2023/08/06 04:16:46;;;;;;;8.75;5.60;;;;;;;13.85;nan;100321.09;5022405;28;20113;-77
2023/08/06 04:19:11;;;;;;;10.55;5.70;;;;;;;13.84;nan;100318.56;5022156;28;20537;-76
2023/08/06 04:21:37;;;;;;;8.38;5.85;;;;;;;13.86;nan;100317.53;5024121;28;20116;-77
2023/08/06 04:24:02;;;;;;;9.05;5.57;;;;;;;13.87;nan;100327.13;5024891;28;20466;-77
2023/08/06 04:26:28;;;;;;;11.07;6.07;;;;;;;13.86;nan;100329.81;5022079;28;20089;-77
2023/08/06 04:28:53;;;;;;;9.07;6.10;;;;;;;13.88;nan;100326.19;5023922;28;20049;-77
2023/08/06 04:31:18;;;;;;;9.02;5.85;;;;;;;13.88;nan;100318.34;5021210;28;20108;-77
2023/08/06 04:33:44;;;;;;;13.48;6.13;;;;;;;13.92;nan;100332.16;5016886;28;20040;-77
2023/08/06 04:36:09;;;;;;;12.57;6.55;;;;;;;13.91;nan;100328.69;5022022;28;20431;-76
2023/08/06 04:38:34;;;;;;;10.80;6.03;;;;;;;13.96;nan;100333.72;5022425;28;20022;-77
2023/08/06 04:41:02;;;;;;;8.60;5.85;;;;;;;13.87;nan;100326.28;5023641;28;20464;-76
2023/08/06 04:43:28;;;;;;;9.77;6.25;;;;;;;13.92;nan;100337.41;5020542;28;20164;-76
2023/08/06 04:45:54;;;;;;;10.20;6.13;;;;;;;13.95;nan;100334.63;5026569;28;20073;-77
2023/08/06 04:48:20;;;;;;;12.70;6.25;;;;;;;13.98;nan;100339.75;5020100;28;20026;-77
2023/08/06 04:50:48;;;;;;;9.75;6.57;;;;;;;14.01;nan;100337.81;5014306;28;20034;-77
2023/08/06 04:53:14;;;;;;;12.07;7.10;;;;;;;14.04;nan;100339.47;5021275;28;20501;-77
2023/08/06 04:55:39;;;;;;;10.50;6.90;;;;;;;14.14;nan;100340.75;5019879;28;20117;-77
2023/08/06 04:58:05;;;;;;;9.52;6.97;;;;;;;14.17;nan;100343.22;5027851;28;20032;-77
2023/08/06 05:00:31;;;;;;;9.10;7.10;;;;;;;14.24;nan;100351.66;5016214;28;20053;-77
2023/08/06 05:02:57;;;;;;;11.52;6.97;;;;;;;14.26;nan;100344.56;5011567;28;20018;-77
2023/08/06 05:05:22;;;;;;;8.75;6.55;;;;;;;14.33;nan;100342.50;5018694;28;20026;-77
2023/08/06 05:07:49;;;;;;;14.60;7.43;;;;;;;14.33;nan;100353.00;5019702;28;20050;-77
2023/08/06 05:10:15;;;;;;;10.00;7.43;;;;;;;14.34;nan;100347.69;5010449;28;20060;-77
2023/08/06 05:12:40;;;;;;;14.57;7.53;;;;;;;14.36;nan;100355.47;5020758;28;20099;-77
2023/08/06 05:15:06;;;;;;;10.05;7.20;;;;;;;14.34;nan;100355.53;5024527;28;20487;-77
2023/08/06 05:17:32;;;;;;;9.85;7.65;;;;;;;14.38;nan;100351.84;5024390;28;20025;-77
2023/08/06 05:19:57;;;;;;;11.55;7.60;;;;;;;14.42;nan;100360.41;5023278;28;20443;-77
2023/08/06 05:22:22;;;;;;;13.50;7.55;;;;;;;14.45;nan;100366.41;5018923;28;20037;-77
2023/08/06 05:24:48;;;;;;;12.15;7.28;;;;;;;14.44;nan;100367.28;5021575;28;20028;-76
2023/08/06 05:27:13;;;;;;;9.27;7.50;;;;;;;14.41;nan;100363.97;5022215;28;20084;-77
2023/08/06 05:29:38;;;;;;;9.50;6.35;;;;;;;14.42;nan;100370.91;5020739;28;20029;-77
2023/08/06 05:32:04;;;;;;;9.00;6.78;;;;;;;14.51;nan;100379.22;5025749;28;20045;-77
2023/08/06 05:34:29;;;;;;;11.35;6.88;;;;;;;14.59;nan;100378.88;5022266;28;20473;-77
2023/08/06 05:36:55;;;;;;;9.80;7.30;;;;;;;14.69;nan;100379.31;5023542;28;20033;-77
2023/08/06 05:39:20;;;;;;;10.80;7.80;;;;;;;14.74;nan;100375.50;5024438;28;20122;-77
2023/08/06 05:41:45;;;;;;;13.35;7.10;;;;;;;14.80;nan;100378.78;5020620;28;20064;-77
2023/08/06 05:44:11;;;;;;;11.02;7.07;;;;;;;14.90;nan;100382.66;5025844;28;20030;-77
2023/08/06 05:46:36;;;;;;;11.25;6.93;;;;;;;15.01;nan;100390.88;5025222;28;20049;-77
2023/08/06 05:49:02;;;;;;;9.40;6.43;;;;;;;15.08;nan;100392.25;5027260;28;20080;-77
2023/08/06 05:51:27;;;;;;;13.90;6.60;;;;;;;15.13;nan;100405.16;5024200;28;20533;-77
2023/08/06 05:53:53;;;;;;;10.63;6.47;;;;;;;15.17;nan;100397.06;5026599;28;20018;-77
2023/08/06 05:56:18;;;;;;;9.30;6.05;;;;;;;15.09;nan;100403.59;5026710;28;20461;-77
2023/08/06 05:58:43;;;;;;;9.15;5.85;;;;;;;15.01;nan;100401.38;5028220;28;20109;-77
2023/08/06 06:01:09;;;;;;;11.30;7.07;;;;;;;15.02;nan;100413.56;5026552;28;20048;-77
2023/08/06 06:03:34;;;;;;;9.80;7.38;;;;;;;15.04;nan;100411.72;5024746;28;20384;-77
2023/08/06 06:06:01;;;;;;;9.00;7.57;;;;;;;14.99;nan;100416.31;5024599;28;20433;-77
2023/08/06 06:08:26;;;;;;;11.55;7.90;;;;;;;14.98;nan;100427.75;5029182;28;20361;-77
2023/08/06 06:10:51;;;;;;;12.23;8.15;;;;;;;14.91;nan;100413.22;5022926;28;20022;-77
2023/08/06 06:13:17;;;;;;;13.23;7.82;;;;;;;14.95;nan;100423.50;5031500;28;20473;-77
2023/08/06 06:15:42;;;;;;;10.70;7.72;;;;;;;15.01;nan;100438.13;5021564;28;20044;-77
2023/08/06 06:18:07;;;;;;;13.85;8.15;;;;;;;15.02;nan;100439.81;5023574;28;20457;-76
2023/08/06 06:20:33;;;;;;;11.32;7.60;;;;;;;14.99;nan;100439.94;5021350;28;20053;-77
2023/08/06 06:22:59;;;;;;;9.43;7.35;;;;;;;14.97;nan;100429.50;5013747;28;20168;-76
2023/08/06 06:25:24;;;;;;;12.38;7.85;;;;;;;14.97;nan;100447.03;5023498;28;20110;-76
2023/08/06 06:27:49;;;;;;;11.52;7.30;;;;;;;14.93;nan;100450.75;5023785;28;20025;-76
2023/08/06 06:30:15;;;;;;;9.82;6.80;;;;;;;14.90;nan;100458.75;5029106;28;20505;-77
2023/08/06 06:32:40;;;;;;;9.73;6.63;;;;;;;14.85;nan;100464.25;5016649;28;20481;-77
2023/08/06 06:35:06;;;;;;;9.85;6.32;;;;;;;14.79;nan;100456.66;5028072;28;20026;-77
2023/08/06 06:37:31;;;;;;;9.77;6.82;;;;;;;14.80;nan;100473.25;5023804;28;20469;-77
2023/08/06 06:39:57;;;;;;;8.45;5.63;;;;;;;14.70;nan;100476.28;5025291;28;20022;-77
2023/08/06 06:42:22;;;;;;;8.55;5.03;;;;;;;14.55;nan;100463.91;5029011;28;20033;-77
2023/08/06 06:44:48;;;;;;;5.75;4.50;;;;;;;14.56;nan;100483.94;5024308;28;20401;-77
2023/08/06 06:47:13;;;;;;;4.78;2.83;;;;;;;14.35;nan;100477.84;5024916;28;20029;-78
2023/08/06 06:49:38;;;;;;;3.95;2.05;;;;;;;14.25;nan;100498.38;5017421;28;20018;-78
2023/08/06 06:52:04;;;;;;;1.70;1.60;;;;;;;14.04;nan;100497.56;5020867;28;20029;-79
2023/08/06 06:54:30;;;;;;;3.05;1.65;;;;;;;13.92;nan;100505.94;5014868;28;20030;-78
2023/08/06 06:56:55;;;;;;;2.28;2.08;;;;;;;13.69;nan;100503.44;5016061;28;20036;-78
2023/08/06 06:59:20;;;;;;;2.20;2.00;;;;;;;13.68;nan;100512.25;5025648;28;20049;-78
2023/08/06 07:01:46;;;;;;;2.35;2.10;;;;;;;13.55;nan;100506.66;5024025;28;20028;-79
2023/08/06 07:04:11;;;;;;;5.18;2.50;;;;;;;13.57;nan;100517.94;5023141;28;20068;-78
2023/08/06 07:06:36;;;;;;;4.47;2.63;;;;;;;13.54;nan;100513.66;5025341;28;20029;-78
2023/08/06 07:09:02;;;;;;;4.47;3.05;;;;;;;13.46;nan;100510.47;5024778;28;20084;-79
2023/08/06 07:11:27;;;;;;;3.38;3.00;;;;;;;13.42;nan;100511.53;5024851;28;20523;-78
2023/08/06 07:14:00;;;;;;;4.15;3.53;;;;;;;13.43;nan;100525.47;5022992;28;20021;-78
2023/08/06 07:16:26;;;;;;;4.38;3.63;;;;;;;13.45;nan;100536.75;5006900;28;20064;-79
2023/08/06 07:18:52;;;;;;;6.63;4.00;;;;;;;13.39;nan;100532.59;5023573;28;20018;-79
2023/08/06 07:21:18;;;;;;;6.88;3.78;;;;;;;13.37;nan;100538.81;5023833;28;20026;-79
2023/08/06 07:23:43;;;;;;;6.72;4.57;;;;;;;13.35;nan;100544.97;5021166;28;20021;-79
2023/08/06 07:26:09;;;;;;;8.55;5.18;;;;;;;13.35;nan;100549.34;5017489;28;20085;-78
2023/08/06 07:28:34;;;;;;;5.30;4.80;;;;;;;13.26;nan;100544.47;5024558;28;20028;-79
2023/08/06 07:31:00;;;;;;;6.68;5.50;;;;;;;13.29;nan;100560.06;5023977;28;20552;-79
2023/08/06 07:33:25;;;;;;;7.68;5.65;;;;;;;13.30;nan;100567.00;5020512;28;20037;-79
2023/08/06 07:35:50;;;;;;;8.50;5.43;;;;;;;13.24;nan;100570.72;5025762;28;20037;-79
2023/08/06 07:38:16;;;;;;;8.48;5.97;;;;;;;13.23;nan;100563.72;5021800;28;20033;-78
2023/08/06 07:40:42;;;;;;;8.05;6.40;;;;;;;13.30;nan;100572.22;5018816;28;20849;-79
2023/08/06 07:43:07;;;;;;;13.88;7.00;;;;;;;13.29;nan;100575.78;5021308;28;20482;-78
2023/08/06 07:45:36;;;;;;;8.27;6.70;;;;;;;13.35;nan;100578.16;5028350;28;20029;-79
2023/08/06 07:48:03;;;;;;;11.40;7.07;;;;;;;13.37;nan;100578.06;5021572;28;20109;-79
2023/08/06 07:50:28;;;;;;;10.43;7.10;;;;;;;13.34;nan;100582.53;5025662;28;20021;-79
2023/08/06 07:52:53;;;;;;;10.50;7.68;;;;;;;13.32;nan;100579.13;5025006;28;20072;-80
2023/08/06 07:55:19;;;;;;;10.85;8.18;;;;;;;13.36;nan;100582.47;5020502;28;20532;-80
2023/08/06 07:57:44;;;;;;;11.82;7.80;;;;;;;13.42;nan;100589.25;5013035;28;20542;-80
2023/08/06 08:00:10;;;;;;;9.77;7.97;;;;;;;13.48;nan;100586.38;5019986;28;20030;-80
2023/08/06 08:02:35;;;;;;;13.57;8.95;;;;;;;13.53;nan;100592.28;5028402;28;20024;-80
2023/08/06 08:05:01;;;;;;;13.80;8.25;;;;;;;13.65;nan;100589.16;5020907;28;20453;-80
2023/08/06 08:07:28;;;;;;;16.27;8.68;;;;;;;13.66;nan;100585.63;5026703;28;20088;-79
2023/08/06 08:09:54;;;;;;;18.63;9.02;;;;;;;13.78;nan;100585.13;5023787;28;20021;-79
2023/08/06 08:12:19;;;;;;;12.25;8.25;;;;;;;13.69;nan;100569.78;5008710;28;20038;-79
2023/08/06 08:14:45;;;;;;;13.43;7.65;;;;;;;13.75;nan;100590.50;5009059;28;20029;-78
2023/08/06 08:17:11;;;;;;;11.63;7.05;;;;;;;13.74;nan;100587.97;5008887;28;20125;-78
2023/08/06 08:19:37;;;;;;;22.15;7.63;;;;;;;13.74;nan;100587.97;5009636;28;20025;-78
2023/08/06 08:22:03;;;;;;;17.10;7.05;;;;;;;13.70;nan;100592.47;5010587;28;20026;-79
2023/08/06 08:24:30;;;;;;;13.38;6.85;;;;;;;13.69;nan;100590.75;5009138;28;20025;-79
2023/08/06 08:26:56;;;;;;;12.27;6.53;;;;;;;13.69;nan;100603.84;5009215;28;20019;-78
2023/08/06 08:29:22;;;;;;;15.25;6.20;;;;;;;13.66;nan;100598.72;5008354;28;20022;-79
2023/08/06 08:31:49;;;;;;;15.95;5.95;;;;;;;13.65;nan;100604.88;5008935;28;20410;-79
2023/08/06 08:34:18;;;;;;;12.80;6.00;;;;;;;13.58;nan;100587.72;5007987;28;20026;-78
2023/08/06 08:36:47;;;;;;;15.20;6.57;;;;;;;13.59;nan;100610.38;5010223;28;20473;-79
2023/08/06 08:39:12;;;;;;;12.93;5.30;;;;;;;13.61;nan;100616.41;5015886;28;20079;-80
2023/08/06 08:41:38;;;;;;;12.45;5.00;;;;;;;13.53;nan;100618.47;5020016;28;20018;-81
2023/08/06 08:44:08;;;;;;;13.35;5.20;;;;;;;13.53;nan;100623.69;5021952;28;20032;-80
2023/08/06 08:46:35;;;;;;;12.00;4.85;;;;;;;13.48;nan;100617.81;5013820;28;20354;-80
2023/08/06 08:49:02;;;;;;;14.18;5.32;;;;;;;13.48;nan;100610.78;5017431;28;20029;-80
2023/08/06 08:51:28;;;;;;;12.63;4.90;;;;;;;13.42;nan;100612.81;5011620;28;20025;-80
2023/08/06 08:53:56;;;;;;;20.40;5.20;;;;;;;13.46;nan;100624.84;5017898;28;20017;-81
2023/08/06 08:56:21;;;;;;;13.32;5.00;;;;;;;13.51;nan;100628.16;5013699;28;20069;-81
2023/08/06 08:58:48;;;;;;;13.60;5.40;;;;;;;13.44;nan;100624.94;5020717;28;20109;-82
2023/08/06 09:01:14;;;;;;;18.35;5.85;;;;;;;13.46;nan;100635.34;5005988;28;20033;-80
2023/08/06 09:03:40;;;;;;;15.25;5.30;;;;;;;13.43;nan;100643.31;5018828;28;20032;-82
2023/08/06 09:06:06;;;;;;;11.63;5.40;;;;;;;13.42;nan;100639.84;5022504;28;20025;-83
2023/08/06 09:08:37;;;;;;;16.10;5.43;;;;;;;13.39;nan;100647.81;5015174;28;20028;-84
2023/08/06 09:11:04;;;;;;;14.60;5.68;;;;;;;13.43;nan;100653.78;5022423;28;20026;-83
2023/08/06 09:13:30;;;;;;;17.35;5.78;;;;;;;13.47;nan;100660.59;5018759;28;20025;-83
2023/08/06 09:15:55;;;;;;;15.25;5.80;;;;;;;13.50;nan;100661.31;5016390;28;20033;-84
2023/08/06 09:18:29;;;;;;;23.00;5.97;;;;;;;13.57;nan;100669.84;5015678;28;20041;-83
2023/08/06 09:20:55;;;;;;;12.70;5.80;;;;;;;13.57;nan;100669.84;5020685;28;20057;-82
2023/08/06 09:23:27;;;;;;;16.00;5.68;;;;;;;13.61;nan;100674.03;5022602;28;20413;-83
2023/08/06 09:25:53;;;;;;;14.07;5.38;;;;;;;13.61;nan;100675.81;5022658;28;20108;-83
2023/08/06 09:28:18;;;;;;;21.05;6.40;;;;;;;13.58;nan;100671.53;5020851;28;20125;-83
2023/08/06 09:30:47;;;;;;;15.63;5.40;;;;;;;13.66;nan;100692.19;5018336;28;20029;-83
2023/08/06 09:33:18;;;;;;;13.02;5.50;;;;;;;13.70;nan;100684.16;5011995;28;20551;-83
2023/08/06 09:35:45;;;;;;;16.42;5.43;;;;;;;13.78;nan;100695.19;5024573;28;20554;-83
2023/08/06 09:38:11;;;;;;;19.58;5.85;;;;;;;13.88;nan;100700.91;5020048;28;20037;-84
2023/08/06 09:40:37;;;;;;;14.25;5.78;;;;;;;13.87;nan;100698.38;5018442;28;20029;-79
2023/08/06 09:43:03;;;;;;;22.02;6.28;;;;;;;13.86;nan;100696.63;5008535;28;20535;-80
2023/08/06 09:45:34;;;;;;;15.63;6.00;;;;;;;13.82;nan;100706.41;5017880;28;20076;-81
2023/08/06 09:48:03;;;;;;;17.35;5.82;;;;;;;13.87;nan;100704.47;5011929;28;20342;-81
2023/08/06 09:50:31;;;;;;;13.77;6.18;;;;;;;13.91;nan;100708.66;5012573;28;20026;-80
2023/08/06 09:52:57;;;;;;;16.05;5.60;;;;;;;13.97;nan;100708.41;5015506;28;20097;-81
2023/08/06 09:55:24;;;;;;;17.52;6.03;;;;;;;14.02;nan;100716.94;5013472;28;20165;-81
2023/08/06 09:57:51;;;;;;;18.20;6.43;;;;;;;14.08;nan;100710.59;5021033;28;20097;-80
2023/08/06 10:00:17;;;;;;;14.70;5.50;;;;;;;14.09;nan;100707.06;5015819;28;20021;-81
2023/08/06 10:02:43;;;;;;;15.65;6.03;;;;;;;14.13;nan;100721.78;5011759;28;20026;-80
2023/08/06 10:05:09;;;;;;;14.02;5.15;;;;;;;14.04;nan;100706.41;5018311;28;20050;-81
2023/08/06 10:07:35;;;;;;;13.38;5.78;;;;;;;14.11;nan;100718.34;5017828;28;20057;-79
2023/08/06 10:10:02;;;;;;;14.93;5.65;;;;;;;14.18;nan;100718.97;5011511;28;20079;-80
2023/08/06 10:12:32;;;;;;;13.77;6.07;;;;;;;14.14;nan;100722.63;5009757;28;20022;-80
2023/08/06 10:15:01;;;;;;;19.90;5.65;;;;;;;14.10;nan;100727.13;5013835;28;20042;-80
2023/08/06 10:17:28;;;;;;;17.48;5.03;;;;;;;13.99;nan;100722.28;5021343;28;20038;-80
2023/08/06 10:19:56;;;;;;;12.30;4.47;;;;;;;13.99;nan;100729.31;5026554;28;20026;-80
2023/08/06 10:22:23;;;;;;;10.63;4.35;;;;;;;13.98;nan;100730.25;5024533;28;20057;-79
2023/08/06 10:24:52;;;;;;;9.52;4.70;;;;;;;14.04;nan;100730.84;4997493;28;20023;-79
2023/08/06 10:27:35;;;;;;;14.85;6.82;;;;;;;14.11;nan;100731.47;5019661;28;20029;-79
2023/08/06 10:30:30;;;;;;;18.00;5.25;;;;;;;14.20;nan;100727.63;5016481;28;20116;-79
2023/08/06 10:33:02;;;;;;;12.40;4.93;;;;;;;14.14;nan;100733.09;5021548;28;20088;-79
2023/08/06 10:35:32;;;;;;;8.93;4.32;;;;;;;14.13;nan;100729.63;5028914;28;20040;-80
2023/08/06 10:38:09;;;;;;;10.90;4.80;;;;;;;14.17;nan;100744.31;5012708;28;20672;-79
2023/08/06 10:40:35;;;;;;;11.48;5.38;;;;;;;14.15;nan;100740.91;5028415;28;20033;-79
2023/08/06 10:43:06;;;;;;;16.27;5.60;;;;;;;14.29;nan;100733.34;5013344;28;20038;-79
2023/08/06 10:45:35;;;;;;;11.77;5.65;;;;;;;14.34;nan;100741.03;5023924;28;20057;-79
2023/08/06 10:48:00;;;;;;;13.15;6.13;;;;;;;14.39;nan;100739.06;5024956;28;20049;-80
2023/08/06 10:50:26;;;;;;;14.07;6.00;;;;;;;14.39;nan;100748.72;5029281;28;20112;-80
2023/08/06 10:52:51;;;;;;;11.13;5.70;;;;;;;14.40;nan;100743.41;5015053;28;20487;-80
2023/08/06 10:55:27;;;;;;;12.48;5.90;;;;;;;14.37;nan;100743.53;5019249;28;20406;-80
2023/08/06 10:57:54;;;;;;;15.95;6.28;;;;;;;14.50;nan;100760.50;5015792;28;20033;-79
2023/08/06 11:00:21;;;;;;;15.27;6.28;;;;;;;14.55;nan;100748.94;5021209;28;20088;-78
2023/08/06 11:02:48;;;;;;;16.95;6.60;;;;;;;14.53;nan;100741.16;5015396;28;20030;-79
2023/08/06 11:05:13;;;;;;;10.13;6.00;;;;;;;14.66;nan;100750.22;5027802;28;20033;-78
2023/08/06 11:07:39;;;;;;;12.63;6.80;;;;;;;14.72;nan;100757.84;5014450;28;20037;-80
2023/08/06 11:10:06;;;;;;;18.90;6.80;;;;;;;14.78;nan;100762.00;5020287;28;20027;-81
2023/08/06 11:12:32;;;;;;;14.23;6.65;;;;;;;14.68;nan;100751.03;5010518;28;20065;-80
2023/08/06 11:14:58;;;;;;;17.45;6.60;;;;;;;14.70;nan;100759.66;5027474;28;20026;-79
2023/08/06 11:17:24;;;;;;;13.02;5.90;;;;;;;14.71;nan;100760.50;5020874;28;20076;-80
2023/08/06 11:19:50;;;;;;;18.77;6.47;;;;;;;14.75;nan;100762.13;5020940;28;20025;-80
2023/08/06 11:22:17;;;;;;;20.73;6.60;;;;;;;14.72;nan;100752.59;5019118;28;20489;-79
2023/08/06 11:24:42;;;;;;;11.80;6.10;;;;;;;14.67;nan;100759.78;5022741;28;20025;-85
2023/08/06 11:27:13;;;;;;;16.45;6.63;;;;;;;14.71;nan;100758.78;5023220;28;20087;-80
2023/08/06 11:29:38;;;;;;;11.80;5.95;;;;;;;14.66;nan;100760.72;5016326;28;20037;-79
2023/08/06 11:32:05;;;;;;;11.20;5.70;;;;;;;14.65;nan;100760.75;5021136;28;20098;-79
2023/08/06 11:34:30;;;;;;;12.20;5.88;;;;;;;14.53;nan;100762.16;5022088;28;21000;-79